< < Back
Terminal Aerodrome Forecast


Current Version              Previous Versions:   1  2  3  4  5  6  7  8  9  

Terminal Aerodrome Forecast

009
FTUS42 KJAX 242320
TAFGNV
TAF
KGNV 242320Z 2500/2524 14008KT P6SM VCTS SCT050CB BKN250
     FM250200 VRB03KT P6SM FEW050
     FM251800 14010KT P6SM SCT050 SCT250=

Latest METAR

134
SAUS70 KWBC 250400 RRB
MTRGNV
METAR KGNV 250353Z AUTO 00000KT 10SM CLR 25/20 A3008 RMK AO2 SLP183
T02500200


USA.gov is the U.S. government's official web portal to all federal, state and local government web resources and services.